Time;durP1;ratioP1;P1;durP2;ratioP2;P2;SDS_P1;SDS_P2;PMS_P1;PMS_P2;Temp;Humidity;BMP_temperature;BMP_pressure;BME280_temperature;BME280_humidity;BME280_pressure;Samples;Min_cycle;Max_cycle;Signal;HPM_P1;HPM_P2
2023/12/05 00:01:52;;;;;;;8.63;3.27;;;;;;;8.30;56.28;99822.25;5010690;28;20347;-85
2023/12/05 00:04:19;;;;;;;8.70;3.63;;;;;;;8.26;56.03;99816.25;5010749;28;20171;-85
2023/12/05 00:06:46;;;;;;;7.80;3.53;;;;;;;8.28;56.33;99813.63;5010743;28;20248;-85
2023/12/05 00:09:11;;;;;;;6.90;3.43;;;;;;;8.33;55.59;99811.72;5009736;28;20240;-85
2023/12/05 00:11:40;;;;;;;7.57;2.83;;;;;;;8.47;55.96;99806.88;5009610;28;20747;-85
2023/12/05 00:14:07;;;;;;;5.47;2.23;;;;;;;8.43;55.85;99811.38;5009679;28;20186;-86
2023/12/05 00:16:33;;;;;;;7.80;3.27;;;;;;;8.52;55.80;99797.97;5010831;28;20205;-85
2023/12/05 00:18:58;;;;;;;6.93;3.17;;;;;;;8.64;55.56;99800.19;5009634;28;20646;-85
2023/12/05 00:21:24;;;;;;;8.23;2.73;;;;;;;8.70;55.46;99806.13;5010521;28;20268;-85
2023/12/05 00:23:51;;;;;;;7.50;2.93;;;;;;;8.63;56.02;99792.41;5010537;28;20174;-85
2023/12/05 00:26:16;;;;;;;6.00;2.83;;;;;;;8.63;56.05;99800.22;5011029;28;20675;-85
2023/12/05 00:28:43;;;;;;;5.67;2.73;;;;;;;8.68;56.66;99797.44;5010454;28;20171;-85
2023/12/05 00:31:11;;;;;;;6.77;3.37;;;;;;;8.69;56.46;99807.88;5013793;28;20181;-85
2023/12/05 00:33:38;;;;;;;5.60;2.77;;;;;;;8.71;56.92;99802.59;5014233;28;20179;-85
2023/12/05 00:36:05;;;;;;;6.73;3.10;;;;;;;8.74;56.57;99799.88;5014160;28;20587;-85
2023/12/05 00:38:30;;;;;;;4.20;2.30;;;;;;;8.74;56.96;99795.50;5012916;28;20181;-86
2023/12/05 00:40:59;;;;;;;7.07;3.40;;;;;;;8.73;57.00;99793.78;5013874;28;20174;-85
2023/12/05 00:43:26;;;;;;;8.10;3.83;;;;;;;8.71;56.54;99787.75;5013789;28;20201;-85
2023/12/05 00:45:52;;;;;;;6.77;2.90;;;;;;;8.75;56.60;99792.00;5013039;28;20590;-85
2023/12/05 00:48:19;;;;;;;10.53;3.30;;;;;;;8.73;56.75;99779.84;5013731;28;20181;-85
2023/12/05 00:50:44;;;;;;;7.83;3.63;;;;;;;8.75;56.72;99784.16;5013700;28;20179;-86
2023/12/05 00:53:11;;;;;;;6.37;2.93;;;;;;;8.77;57.27;99781.47;5045753;28;20179;-85
2023/12/05 00:55:36;;;;;;;10.17;4.13;;;;;;;8.77;57.54;99778.84;5012940;28;20625;-85
2023/12/05 00:58:02;;;;;;;8.53;3.00;;;;;;;8.73;57.36;99769.41;5012643;28;20175;-85
2023/12/05 01:00:29;;;;;;;7.37;3.63;;;;;;;8.65;57.91;99767.91;5045583;28;20209;-85
2023/12/05 01:02:55;;;;;;;8.03;2.67;;;;;;;8.67;57.63;99765.25;5013696;28;20202;-85
2023/12/05 01:05:22;;;;;;;7.10;3.87;;;;;;;8.63;58.14;99766.25;5014060;28;20177;-86
2023/12/05 01:07:48;;;;;;;11.93;4.43;;;;;;;8.68;57.92;99761.72;5012485;28;20188;-85
2023/12/05 01:10:13;;;;;;;9.53;3.90;;;;;;;8.67;57.88;99762.66;5012411;28;20186;-85
2023/12/05 01:12:40;;;;;;;7.47;3.90;;;;;;;8.68;58.29;99758.25;5013380;28;20185;-85
2023/12/05 01:15:07;;;;;;;6.60;3.40;;;;;;;8.69;58.48;99763.44;5013618;28;20260;-85
2023/12/05 01:17:32;;;;;;;9.13;4.13;;;;;;;8.60;58.32;99755.91;5013266;28;20243;-85
2023/12/05 01:19:58;;;;;;;8.17;3.70;;;;;;;8.56;59.13;99751.72;5012314;28;20187;-85
2023/12/05 01:22:23;;;;;;;8.47;4.23;;;;;;;8.55;59.44;99742.16;5013122;28;20284;-85
2023/12/05 01:24:56;;;;;;;9.93;4.27;;;;;;;8.53;59.50;99742.22;5013433;28;20179;-85
2023/12/05 01:27:22;;;;;;;7.53;2.93;;;;;;;8.55;59.52;99750.84;5012163;28;20638;-85
2023/12/05 01:29:49;;;;;;;6.57;3.03;;;;;;;8.64;59.67;99739.22;5013085;28;20184;-85
2023/12/05 01:32:14;;;;;;;10.37;4.57;;;;;;;8.67;59.33;99733.03;5012083;28;20181;-85
2023/12/05 01:34:41;;;;;;;7.27;3.20;;;;;;;8.66;59.62;99732.19;5013323;28;20189;-85
2023/12/05 01:37:07;;;;;;;5.90;3.07;;;;;;;8.66;59.49;99719.13;5013291;28;20175;-85
2023/12/05 01:39:32;;;;;;;7.47;3.60;;;;;;;8.64;59.83;99718.34;5011992;28;20640;-86
2023/12/05 01:41:59;;;;;;;7.80;3.57;;;;;;;8.69;59.84;99711.19;5012032;28;20604;-86
2023/12/05 01:44:26;;;;;;;8.50;3.80;;;;;;;8.75;59.46;99710.97;5013514;28;20199;-85
2023/12/05 01:46:53;;;;;;;6.83;3.50;;;;;;;8.76;59.39;99711.78;5011811;28;20206;-85
2023/12/05 01:49:20;;;;;;;8.67;4.00;;;;;;;8.75;59.87;99713.59;5013087;28;20178;-85
2023/12/05 01:51:48;;;;;;;9.90;4.03;;;;;;;8.72;59.54;99705.00;5044795;28;20178;-86
2023/12/05 01:54:15;;;;;;;7.07;3.43;;;;;;;8.65;59.98;99702.59;5012980;28;20179;-85
2023/12/05 01:56:40;;;;;;;8.27;3.63;;;;;;;8.74;59.64;99706.63;5011717;28;20175;-85
2023/12/05 01:59:07;;;;;;;6.83;3.30;;;;;;;8.77;59.07;99692.59;5011684;28;20179;-85
2023/12/05 02:01:34;;;;;;;10.07;4.40;;;;;;;8.78;58.97;99682.06;5011564;28;20201;-85
2023/12/05 02:04:01;;;;;;;7.20;3.53;;;;;;;8.82;59.21;99688.06;5013144;28;20191;-85
2023/12/05 02:06:26;;;;;;;7.33;3.43;;;;;;;8.86;58.55;99684.41;5012561;28;20251;-85
2023/12/05 02:08:53;;;;;;;10.07;3.57;;;;;;;8.94;58.35;99667.53;5012541;28;20176;-85
2023/12/05 02:11:19;;;;;;;9.93;4.20;;;;;;;8.82;58.97;99673.22;5012539;28;20545;-85
2023/12/05 02:13:47;;;;;;;8.03;3.80;;;;;;;8.81;58.87;99675.88;5012504;28;20174;-85
2023/12/05 02:16:22;;;;;;;8.13;3.47;;;;;;;8.77;59.12;99685.63;5012683;28;20550;-85
2023/12/05 02:18:59;;;;;;;6.73;3.47;;;;;;;8.78;59.23;99671.63;5012393;28;20613;-85
2023/12/05 02:21:30;;;;;;;6.40;2.77;;;;;;;8.81;58.96;99668.91;5011345;28;20643;-85
2023/12/05 02:24:18;;;;;;;8.90;3.97;;;;;;;8.82;58.61;99659.31;5011373;28;20586;-85
2023/12/05 02:26:50;;;;;;;5.83;3.40;;;;;;;8.76;58.92;99663.00;5044269;28;20161;-85
2023/12/05 02:29:17;;;;;;;7.43;3.63;;;;;;;8.80;58.73;99662.00;5011282;28;20180;-85
2023/12/05 02:31:42;;;;;;;7.63;3.30;;;;;;;8.86;58.76;99656.50;5012416;28;20182;-85
2023/12/05 02:34:09;;;;;;;11.23;3.60;;;;;;;8.89;58.11;99661.63;5012258;28;20178;-85
2023/12/05 02:37:02;;;;;;;9.60;3.17;;;;;;;8.93;58.20;99658.00;5011385;28;20268;-86
2023/12/05 02:39:44;;;;;;;8.83;4.03;;;;;;;8.88;58.16;99664.31;5012644;28;20235;-85
2023/12/05 02:42:12;;;;;;;9.00;3.57;;;;;;;8.85;58.08;99661.81;5012570;28;20200;-86
2023/12/05 02:44:48;;;;;;;7.67;3.97;;;;;;;8.78;58.14;99662.97;5011024;28;20181;-85
2023/12/05 02:47:16;;;;;;;6.83;2.90;;;;;;;8.81;58.18;99657.59;5012207;28;20255;-86
2023/12/05 02:49:42;;;;;;;7.17;3.70;;;;;;;8.83;58.08;99656.63;5010945;28;20176;-86
2023/12/05 02:52:07;;;;;;;7.80;3.30;;;;;;;8.88;57.88;99656.47;5011888;28;20692;-85
2023/12/05 02:54:34;;;;;;;6.67;3.57;;;;;;;8.88;58.23;99652.09;5011799;28;20187;-85
2023/12/05 02:56:59;;;;;;;6.20;3.00;;;;;;;8.85;57.50;99660.06;5010833;28;20239;-85
2023/12/05 02:59:26;;;;;;;13.20;3.93;;;;;;;8.84;57.91;99647.88;5011095;28;20175;-85
2023/12/05 03:01:52;;;;;;;8.07;3.73;;;;;;;8.82;57.94;99648.84;5012169;28;20208;-85
2023/12/05 03:04:18;;;;;;;8.40;4.10;;;;;;;8.86;57.35;99639.97;5010699;28;20692;-85
2023/12/05 03:06:44;;;;;;;8.70;3.80;;;;;;;8.82;57.98;99644.47;5010667;28;20658;-85
2023/12/05 03:09:10;;;;;;;11.57;3.93;;;;;;;8.78;58.05;99642.88;5011905;28;20263;-85
2023/12/05 03:11:36;;;;;;;8.10;3.63;;;;;;;8.74;58.05;99638.69;5011435;28;20234;-85
2023/12/05 03:14:06;;;;;;;11.40;4.77;;;;;;;8.78;58.08;99626.38;5011538;28;20180;-85
2023/12/05 03:16:32;;;;;;;10.23;4.13;;;;;;;8.77;58.35;99628.13;5010523;28;20180;-85
2023/12/05 03:18:57;;;;;;;16.43;4.10;;;;;;;8.74;58.91;99628.22;5011622;28;20735;-85
2023/12/05 03:21:23;;;;;;;6.50;3.77;;;;;;;8.73;58.97;99623.03;5011588;28;20246;-85
2023/12/05 03:23:49;;;;;;;9.53;4.23;;;;;;;8.77;58.54;99628.13;5011648;28;20176;-85
2023/12/05 03:26:22;;;;;;;9.73;4.37;;;;;;;8.74;59.22;99625.63;5011320;28;20176;-85
2023/12/05 03:28:50;;;;;;;9.13;3.87;;;;;;;8.78;58.58;99631.59;5010317;28;20184;-85
2023/12/05 03:31:16;;;;;;;9.80;3.70;;;;;;;8.75;59.46;99622.09;5011539;28;20179;-85
2023/12/05 03:33:43;;;;;;;10.33;3.77;;;;;;;8.79;59.35;99622.81;5011186;28;20212;-85
2023/12/05 03:36:11;;;;;;;12.37;4.23;;;;;;;8.72;59.71;99619.59;5011437;28;20176;-85
2023/12/05 03:38:41;;;;;;;8.80;3.67;;;;;;;8.65;59.63;99615.50;5011408;28;20241;-85
2023/12/05 03:41:09;;;;;;;9.03;3.90;;;;;;;8.62;59.53;99613.03;5011093;28;20177;-85
2023/12/05 03:43:35;;;;;;;8.47;3.37;;;;;;;8.62;59.64;99607.78;5010133;28;20195;-85
2023/12/05 03:46:03;;;;;;;11.23;4.37;;;;;;;8.61;60.18;99600.84;5043183;28;20211;-85
2023/12/05 03:48:28;;;;;;;9.20;3.80;;;;;;;8.65;60.25;99599.81;5010001;28;20622;-85
2023/12/05 03:50:53;;;;;;;12.57;5.00;;;;;;;8.72;60.04;99601.31;5010032;28;20181;-85
2023/12/05 03:53:20;;;;;;;8.43;4.03;;;;;;;8.62;60.00;99594.72;5010941;28;20200;-85
2023/12/05 03:55:45;;;;;;;9.63;4.23;;;;;;;8.66;59.69;99596.31;5009932;28;20195;-85
2023/12/05 03:58:11;;;;;;;12.17;4.40;;;;;;;8.57;60.06;99596.63;5011394;28;20177;-85
2023/12/05 04:00:38;;;;;;;11.33;3.87;;;;;;;8.62;59.77;99600.78;5010834;28;20508;-85
2023/12/05 04:03:05;;;;;;;8.60;3.90;;;;;;;8.59;60.50;99600.06;5010999;28;20546;-85
2023/12/05 04:05:30;;;;;;;9.33;3.97;;;;;;;8.54;60.82;99591.53;5010036;28;20179;-85
2023/12/05 04:07:56;;;;;;;10.03;4.67;;;;;;;8.54;60.82;99596.78;5009767;28;20180;-85
2023/12/05 04:10:22;;;;;;;10.63;4.90;;;;;;;8.63;60.39;99596.41;5010695;28;20184;-85
2023/12/05 04:12:49;;;;;;;9.83;4.27;;;;;;;8.62;60.49;99599.94;5011354;28;20285;-85
2023/12/05 04:15:16;;;;;;;10.17;3.67;;;;;;;8.57;60.49;99602.72;5011185;28;20703;-85
2023/12/05 04:17:41;;;;;;;9.73;3.57;;;;;;;8.59;60.61;99602.66;5010892;28;20568;-85
2023/12/05 04:20:10;;;;;;;15.47;5.23;;;;;;;8.63;60.78;99602.50;5009623;28;20175;-86
2023/12/05 04:22:37;;;;;;;11.60;5.30;;;;;;;8.66;60.43;99611.97;5009508;28;20205;-85
2023/12/05 04:25:03;;;;;;;9.90;4.67;;;;;;;8.65;60.18;99608.50;5009537;28;20184;-85
2023/12/05 04:27:29;;;;;;;9.40;4.53;;;;;;;8.69;60.31;99608.41;5010751;28;20206;-85
2023/12/05 04:29:56;;;;;;;8.37;4.00;;;;;;;8.61;59.98;99619.13;5010451;28;20207;-85
2023/12/05 04:32:22;;;;;;;9.67;4.10;;;;;;;8.64;60.24;99619.03;5009792;28;20189;-85
2023/12/05 04:34:49;;;;;;;10.90;4.80;;;;;;;8.69;60.44;99617.09;5009428;28;20179;-85
2023/12/05 04:37:14;;;;;;;7.87;4.17;;;;;;;8.74;60.11;99617.78;5010378;28;20553;-85
2023/12/05 04:39:41;;;;;;;12.97;5.30;;;;;;;8.75;59.66;99603.81;5010330;28;20725;-85
2023/12/05 04:42:08;;;;;;;12.07;4.43;;;;;;;8.63;60.48;99601.63;5009244;28;20697;-85
2023/12/05 04:44:35;;;;;;;11.47;4.87;;;;;;;8.68;60.13;99606.69;5009364;28;20286;-85
2023/12/05 04:47:03;;;;;;;8.23;4.37;;;;;;;8.62;60.55;99613.03;5010813;28;20251;-85
2023/12/05 04:49:29;;;;;;;9.47;4.10;;;;;;;8.70;60.78;99615.34;5010197;28;20171;-85
2023/12/05 04:51:54;;;;;;;11.03;4.50;;;;;;;8.71;60.80;99617.03;5009562;28;20182;-85
2023/12/05 04:54:22;;;;;;;10.37;4.87;;;;;;;8.72;60.88;99613.53;5009235;28;20261;-85
2023/12/05 04:56:49;;;;;;;10.23;4.50;;;;;;;8.78;60.97;99614.13;5010448;28;20170;-85
2023/12/05 04:59:16;;;;;;;10.30;4.60;;;;;;;8.77;61.53;99615.06;5009180;28;20206;-85
2023/12/05 05:01:43;;;;;;;8.43;4.60;;;;;;;8.81;61.32;99621.84;5010019;28;20225;-85
2023/12/05 05:04:10;;;;;;;10.87;5.90;;;;;;;8.85;61.69;99631.31;5009354;28;20214;-85
2023/12/05 05:06:36;;;;;;;10.87;4.80;;;;;;;8.86;61.20;99624.28;5010079;28;20258;-85
2023/12/05 05:09:02;;;;;;;13.07;6.10;;;;;;;8.86;61.12;99619.91;5009052;28;20179;-85
2023/12/05 05:11:27;;;;;;;8.47;4.97;;;;;;;8.82;61.69;99620.09;5010053;28;20216;-85
2023/12/05 05:13:54;;;;;;;12.93;4.87;;;;;;;8.78;61.99;99615.91;5010195;28;20209;-85
2023/12/05 05:16:19;;;;;;;12.97;5.10;;;;;;;8.71;62.36;99617.88;5010994;28;20640;-85
2023/12/05 05:18:45;;;;;;;12.30;5.00;;;;;;;8.64;62.52;99619.03;5026049;28;20184;-85
2023/12/05 05:21:11;;;;;;;10.33;5.50;;;;;;;8.60;62.93;99622.66;5030148;28;20176;-86
2023/12/05 05:23:36;;;;;;;10.33;4.83;;;;;;;8.70;62.60;99616.16;5030756;28;20186;-85
2023/12/05 05:26:02;;;;;;;12.20;5.27;;;;;;;8.67;63.06;99618.94;5031968;28;20177;-85
2023/12/05 05:28:28;;;;;;;10.07;5.07;;;;;;;8.67;62.75;99613.69;5031659;28;20262;-85
2023/12/05 05:30:54;;;;;;;17.90;4.47;;;;;;;8.70;62.47;99618.78;5032703;28;20627;-85
2023/12/05 05:33:22;;;;;;;12.13;5.43;;;;;;;8.71;62.61;99610.03;5032898;28;20167;-85
2023/12/05 05:35:48;;;;;;;14.03;5.20;;;;;;;8.74;62.63;99603.84;5033040;28;20246;-85
2023/12/05 05:38:25;;;;;;;12.53;5.03;;;;;;;8.74;62.50;99599.47;5032052;28;20179;-85
2023/12/05 05:41:33;;;;;;;10.20;5.03;;;;;;;8.71;62.36;99601.34;5032643;28;20182;-85
2023/12/05 05:43:58;;;;;;;14.20;6.17;;;;;;;8.71;62.58;99602.22;5003591;28;20287;-85
2023/12/05 05:46:24;;;;;;;9.40;4.20;;;;;;;8.67;62.69;99598.00;5032620;28;20222;-85
2023/12/05 05:48:50;;;;;;;14.43;5.80;;;;;;;8.66;62.74;99593.69;5031618;28;20179;-85
2023/12/05 05:51:15;;;;;;;13.17;5.97;;;;;;;8.68;62.81;99589.25;5032846;28;20181;-85
2023/12/05 05:53:41;;;;;;;13.77;5.77;;;;;;;8.64;63.18;99590.28;5032535;28;20673;-85
2023/12/05 05:56:07;;;;;;;16.67;5.90;;;;;;;8.61;63.39;99582.56;5032724;28;20179;-85
2023/12/05 05:58:32;;;;;;;10.77;5.13;;;;;;;8.66;63.64;99575.41;5032345;28;20249;-85
2023/12/05 06:00:57;;;;;;;11.90;6.10;;;;;;;8.67;63.23;99577.13;5032381;28;20266;-85
2023/12/05 06:03:24;;;;;;;12.23;5.73;;;;;;;8.68;63.06;99573.56;5031284;28;20666;-85
2023/12/05 06:05:49;;;;;;;13.43;5.33;;;;;;;8.62;63.28;99566.81;5031401;28;20180;-85
2023/12/05 06:08:15;;;;;;;13.70;6.50;;;;;;;8.62;63.44;99550.31;5032597;28;20525;-85
2023/12/05 06:10:41;;;;;;;17.70;6.50;;;;;;;8.60;63.47;99554.72;5032145;28;20173;-85
2023/12/05 06:13:07;;;;;;;13.27;5.53;;;;;;;8.64;63.71;99556.31;5032503;28;20686;-85
2023/12/05 06:15:33;;;;;;;14.47;6.20;;;;;;;8.67;64.20;99566.66;5031217;28;20182;-85
2023/12/05 06:17:58;;;;;;;15.67;7.00;;;;;;;8.65;64.50;99568.44;5032119;28;20171;-85
2023/12/05 06:20:24;;;;;;;18.17;6.23;;;;;;;8.64;64.41;99562.41;5031165;28;20176;-85
2023/12/05 06:22:49;;;;;;;21.63;5.77;;;;;;;8.69;64.35;99575.28;5032520;28;20614;-85
2023/12/05 06:25:15;;;;;;;13.00;6.23;;;;;;;8.68;64.63;99577.94;5032278;28;20176;-85
2023/12/05 06:27:41;;;;;;;21.30;9.30;;;;;;;8.72;64.63;99580.41;5031355;28;20180;-85
2023/12/05 06:30:07;;;;;;;14.17;7.17;;;;;;;8.79;64.28;99581.00;5030967;28;20180;-86
2023/12/05 06:32:33;;;;;;;15.53;5.53;;;;;;;8.77;64.56;99578.47;5031884;28;20163;-85
2023/12/05 06:34:59;;;;;;;23.20;9.87;;;;;;;8.69;64.19;99585.75;5030911;28;20742;-85
2023/12/05 06:37:25;;;;;;;20.47;6.73;;;;;;;8.67;64.52;99582.34;5030882;28;20307;-85
2023/12/05 06:39:51;;;;;;;18.87;7.33;;;;;;;8.72;64.37;99590.84;5032055;28;20612;-85
2023/12/05 06:42:17;;;;;;;18.47;8.43;;;;;;;8.73;64.26;99576.84;5031694;28;20203;-85
2023/12/05 06:44:43;;;;;;;15.03;7.47;;;;;;;8.72;64.82;99572.56;5030798;28;20180;-85
2023/12/05 06:47:09;;;;;;;22.00;8.90;;;;;;;8.72;65.08;99567.34;5030718;28;20276;-85
2023/12/05 06:49:34;;;;;;;18.73;8.53;;;;;;;8.74;65.58;99577.72;5030678;28;20268;-85
2023/12/05 06:52:00;;;;;;;19.20;8.73;;;;;;;8.70;65.52;99574.34;5030662;28;20553;-85
2023/12/05 06:54:26;;;;;;;18.37;9.63;;;;;;;8.70;66.13;99565.69;5030900;28;20177;-86
2023/12/05 06:56:51;;;;;;;27.47;9.40;;;;;;;8.86;65.58;99567.63;5030522;28;20191;-85
2023/12/05 06:59:17;;;;;;;26.77;10.33;;;;;;;8.91;65.51;99555.22;5032012;28;20191;-85
2023/12/05 07:01:42;;;;;;;20.53;9.13;;;;;;;9.00;65.13;99560.13;5031336;28;20615;-85
2023/12/05 07:04:08;;;;;;;15.37;7.80;;;;;;;9.05;65.40;99552.94;5031661;28;20173;-85
2023/12/05 07:06:33;;;;;;;17.57;8.03;;;;;;;9.10;64.66;99563.22;5031356;28;20611;-85
2023/12/05 07:08:59;;;;;;;19.43;8.50;;;;;;;9.15;64.56;99563.88;5030388;28;20579;-85
2023/12/05 07:11:27;;;;;;;23.27;8.83;;;;;;;9.17;64.09;99568.13;5031563;28;20204;-86
2023/12/05 07:13:54;;;;;;;21.93;8.87;;;;;;;9.22;63.98;99565.34;5031562;28;20254;-85
2023/12/05 07:16:19;;;;;;;19.23;8.80;;;;;;;9.21;63.74;99567.13;5031570;28;20186;-86
2023/12/05 07:18:45;;;;;;;25.77;9.93;;;;;;;9.13;63.81;99566.56;5031421;28;20177;-85
2023/12/05 07:21:11;;;;;;;34.03;11.73;;;;;;;9.20;63.28;99554.94;5030177;28;20175;-85
2023/12/05 07:23:36;;;;;;;27.17;10.33;;;;;;;9.10;63.61;99550.13;5031159;28;20196;-85
2023/12/05 07:26:02;;;;;;;31.40;12.07;;;;;;;9.07;64.02;99556.34;5030091;28;20186;-85
2023/12/05 07:28:28;;;;;;;31.73;12.10;;;;;;;9.07;63.98;99568.56;5031262;28;20174;-85
2023/12/05 07:30:54;;;;;;;37.13;12.40;;;;;;;9.04;64.33;99569.53;5030983;28;20205;-85
2023/12/05 07:33:19;;;;;;;36.50;12.50;;;;;;;9.00;64.66;99575.81;5029994;28;20176;-85
2023/12/05 07:35:45;;;;;;;30.33;11.07;;;;;;;9.06;65.00;99587.78;5029976;28;20258;-85
2023/12/05 07:38:10;;;;;;;18.97;9.17;;;;;;;9.00;65.47;99585.41;5031259;28;20175;-86
2023/12/05 07:40:36;;;;;;;17.87;8.60;;;;;;;8.92;65.41;99583.09;5029069;28;20184;-85
2023/12/05 07:43:01;;;;;;;19.53;9.93;;;;;;;8.98;65.84;99582.88;5030778;28;20280;-85
2023/12/05 07:45:27;;;;;;;18.93;8.77;;;;;;;9.02;65.67;99592.28;5029799;28;20244;-85
2023/12/05 07:47:52;;;;;;;26.93;10.97;;;;;;;8.88;65.19;99586.75;5030743;28;20184;-85
2023/12/05 07:50:18;;;;;;;26.13;9.60;;;;;;;8.84;65.67;99579.06;5030748;28;20187;-85
2023/12/05 07:52:48;;;;;;;30.63;11.67;;;;;;;8.86;65.48;99583.31;5030971;28;20605;-85
2023/12/05 07:55:14;;;;;;;23.40;11.03;;;;;;;8.90;65.56;99584.06;5031278;28;20151;-85
2023/12/05 07:57:39;;;;;;;32.70;11.17;;;;;;;8.96;65.12;99583.84;5029949;28;20595;-85
2023/12/05 08:00:09;;;;;;;32.97;12.33;;;;;;;8.96;64.86;99584.66;5031145;28;20173;-85
2023/12/05 08:02:35;;;;;;;31.13;12.67;;;;;;;8.92;65.55;99580.47;5031089;28;20649;-86
2023/12/05 08:05:00;;;;;;;29.67;12.27;;;;;;;8.97;64.94;99586.38;5029548;28;20211;-85
2023/12/05 08:07:26;;;;;;;34.20;12.13;;;;;;;8.89;64.94;99588.44;5029833;28;20201;-86
2023/12/05 08:09:51;;;;;;;32.97;14.17;;;;;;;8.86;64.72;99585.94;5030438;28;20208;-86
2023/12/05 08:12:17;;;;;;;38.10;15.10;;;;;;;8.81;65.28;99582.66;5029955;28;20199;-86
2023/12/05 08:14:42;;;;;;;25.20;10.60;;;;;;;8.81;65.13;99574.81;5030660;28;20172;-85
2023/12/05 08:17:08;;;;;;;24.70;10.83;;;;;;;8.87;65.09;99577.19;5030657;28;20648;-85
2023/12/05 08:19:34;;;;;;;33.70;13.40;;;;;;;8.83;64.88;99572.97;5030315;28;20176;-85
2023/12/05 08:21:59;;;;;;;31.60;13.83;;;;;;;8.75;65.23;99569.84;5030183;28;20645;-85
2023/12/05 08:24:25;;;;;;;35.03;13.47;;;;;;;8.71;65.17;99572.59;5029318;28;20178;-86
2023/12/05 08:26:50;;;;;;;39.40;15.30;;;;;;;8.74;65.33;99568.13;5030239;28;20263;-85
2023/12/05 08:29:16;;;;;;;37.57;14.37;;;;;;;8.68;65.42;99570.94;5030143;28;20179;-85
2023/12/05 08:31:41;;;;;;;47.47;17.17;;;;;;;8.77;65.52;99568.00;5030214;28;20175;-85
2023/12/05 08:34:07;;;;;;;41.63;15.27;;;;;;;8.83;64.86;99569.53;5029228;28;20251;-86
2023/12/05 08:36:32;;;;;;;46.00;15.47;;;;;;;8.82;65.37;99568.69;5029477;28;20621;-85
2023/12/05 08:38:58;;;;;;;27.57;11.63;;;;;;;8.75;64.73;99559.38;5030093;28;20201;-86
2023/12/05 08:41:23;;;;;;;29.50;11.30;;;;;;;8.73;64.61;99552.47;5029001;28;20179;-86
2023/12/05 08:43:49;;;;;;;32.63;11.87;;;;;;;8.72;64.83;99545.56;5030020;28;20578;-86
2023/12/05 08:46:15;;;;;;;31.83;11.90;;;;;;;8.79;64.64;99547.03;5029003;28;20517;-86
2023/12/05 08:48:40;;;;;;;30.77;11.43;;;;;;;8.86;64.89;99540.63;5028994;28;20670;-86
2023/12/05 08:51:07;;;;;;;30.83;12.50;;;;;;;8.95;64.58;99530.69;5031988;28;20180;-86
2023/12/05 08:53:32;;;;;;;30.67;11.57;;;;;;;8.99;65.46;99529.66;5032702;28;20192;-86
2023/12/05 08:55:58;;;;;;;29.60;10.97;;;;;;;9.08;65.08;99521.44;5033324;28;20242;-85
2023/12/05 08:58:23;;;;;;;29.23;10.33;;;;;;;9.19;63.76;99521.88;5032365;28;20624;-86
2023/12/05 09:00:49;;;;;;;29.23;10.70;;;;;;;9.06;64.30;99518.03;5033617;28;20176;-86
2023/12/05 09:03:14;;;;;;;24.47;9.50;;;;;;;9.12;64.43;99517.78;5033458;28;20195;-86
2023/12/05 09:05:40;;;;;;;30.97;9.40;;;;;;;9.24;62.70;99517.28;5033227;28;20186;-86
2023/12/05 09:08:05;;;;;;;23.17;9.17;;;;;;;9.35;62.85;99510.75;5032271;28;20185;-85
2023/12/05 09:10:31;;;;;;;19.53;8.53;;;;;;;9.49;62.22;99501.41;5032210;28;20648;-86
2023/12/05 09:12:56;;;;;;;32.20;10.10;;;;;;;9.52;62.01;99497.81;5033048;28;20192;-86
2023/12/05 09:15:22;;;;;;;23.73;9.80;;;;;;;9.49;61.95;99490.94;5032237;28;20260;-86
2023/12/05 09:17:47;;;;;;;22.93;8.80;;;;;;;9.48;62.17;99489.25;5032414;28;20640;-86
2023/12/05 09:20:13;;;;;;;26.57;9.97;;;;;;;9.55;61.55;99482.84;5032072;28;20656;-86
2023/12/05 09:22:38;;;;;;;18.33;9.07;;;;;;;9.54;61.95;99472.44;5033178;28;20186;-86
2023/12/05 09:25:06;;;;;;;30.37;9.33;;;;;;;9.61;61.46;99466.03;5031972;28;20193;-86
2023/12/05 09:27:32;;;;;;;36.07;10.03;;;;;;;9.65;61.55;99460.59;5031867;28;20188;-86
2023/12/05 09:29:57;;;;;;;31.97;9.57;;;;;;;9.71;61.47;99447.25;5031932;28;20551;-86
2023/12/05 09:32:23;;;;;;;26.00;9.80;;;;;;;9.81;62.04;99439.81;5031922;28;20173;-86
2023/12/05 09:34:49;;;;;;;34.70;11.70;;;;;;;9.87;62.22;99450.03;5032670;28;20569;-86
2023/12/05 09:37:14;;;;;;;29.30;11.90;;;;;;;9.82;62.75;99462.47;5032798;28;20175;-86
2023/12/05 09:39:40;;;;;;;25.07;9.77;;;;;;;9.92;62.35;99455.91;5031766;28;20686;-86
2023/12/05 09:42:12;;;;;;;30.10;10.33;;;;;;;9.95;62.15;99447.06;5031651;28;20285;-86
2023/12/05 09:44:41;;;;;;;24.70;10.60;;;;;;;9.96;61.29;99448.78;5032981;28;20201;-86
2023/12/05 09:47:09;;;;;;;22.60;8.77;;;;;;;9.98;60.65;99453.03;5031938;28;20175;-86
2023/12/05 09:49:35;;;;;;;30.03;10.07;;;;;;;10.02;60.89;99449.31;5031975;28;20211;-86
2023/12/05 09:52:01;;;;;;;31.70;11.27;;;;;;;10.09;60.52;99444.69;5032564;28;20170;-86
2023/12/05 09:54:27;;;;;;;21.40;9.23;;;;;;;10.13;61.22;99439.25;5032521;28;20174;-86
2023/12/05 09:56:56;;;;;;;23.20;10.60;;;;;;;10.08;60.30;99440.34;5032695;28;20198;-86
2023/12/05 09:59:22;;;;;;;20.83;8.83;;;;;;;9.98;60.29;99428.59;5031489;28;20190;-86
2023/12/05 10:01:49;;;;;;;31.77;9.97;;;;;;;10.03;60.39;99417.00;5030843;28;20665;-86
2023/12/05 10:04:18;;;;;;;26.50;9.70;;;;;;;10.07;60.57;99402.81;5032281;28;20170;-86
2023/12/05 10:06:47;;;;;;;26.07;10.90;;;;;;;10.17;60.91;99400.66;5031341;28;20628;-86
2023/12/05 10:09:15;;;;;;;30.87;10.57;;;;;;;10.20;59.78;99390.03;5019931;28;20598;-86
2023/12/05 10:11:41;;;;;;;23.93;8.97;;;;;;;10.30;59.78;99391.28;5021568;28;20195;-86
2023/12/05 10:14:07;;;;;;;20.03;8.43;;;;;;;10.25;59.58;99388.03;5032148;28;20190;-86
2023/12/05 10:16:34;;;;;;;26.00;8.33;;;;;;;10.31;59.17;99380.75;5030560;28;20306;-86
2023/12/05 10:18:59;;;;;;;30.27;11.13;;;;;;;10.27;59.75;99384.44;5031163;28;20206;-86
2023/12/05 10:21:26;;;;;;;38.53;10.77;;;;;;;10.32;60.18;99385.09;5031672;28;20229;-86
2023/12/05 10:23:51;;;;;;;34.93;10.70;;;;;;;10.43;60.17;99377.53;5032198;28;20185;-86
2023/12/05 10:26:18;;;;;;;29.00;11.20;;;;;;;10.46;59.66;99387.88;5032342;28;20173;-87
2023/12/05 10:28:55;;;;;;;32.47;10.03;;;;;;;10.35;60.04;99382.28;5031967;28;20229;-87
2023/12/05 10:31:23;;;;;;;38.17;11.87;;;;;;;10.41;60.34;99379.41;5031885;28;20691;-86
2023/12/05 10:33:50;;;;;;;27.67;11.00;;;;;;;10.51;60.29;99376.34;5030882;28;20226;-86
2023/12/05 10:36:17;;;;;;;28.63;10.57;;;;;;;10.54;59.80;99386.66;5031082;28;20194;-87
2023/12/05 10:38:45;;;;;;;27.30;10.63;;;;;;;10.52;59.93;99380.66;5032076;28;20643;-86
2023/12/05 10:41:21;;;;;;;26.60;9.30;;;;;;;10.47;60.14;99363.38;5031830;28;20186;-86
2023/12/05 10:43:50;;;;;;;25.37;8.67;;;;;;;10.49;60.64;99363.28;5031869;28;20667;-86
2023/12/05 10:46:17;;;;;;;24.60;8.93;;;;;;;10.50;60.26;99365.00;5031981;28;20182;-86
2023/12/05 10:48:45;;;;;;;26.97;8.40;;;;;;;10.49;60.98;99360.69;5031013;28;20554;-86
2023/12/05 10:51:13;;;;;;;31.23;10.00;;;;;;;10.47;60.56;99360.75;5030484;28;20213;-86
2023/12/05 10:53:41;;;;;;;18.40;7.83;;;;;;;10.52;61.16;99351.81;5031565;28;20171;-86
2023/12/05 10:56:18;;;;;;;34.73;8.87;;;;;;;10.51;60.74;99358.00;5030103;28;20178;-86
2023/12/05 10:58:47;;;;;;;25.03;8.13;;;;;;;10.46;61.07;99343.34;5030771;28;20174;-87
2023/12/05 11:01:14;;;;;;;37.03;9.90;;;;;;;10.51;60.69;99342.28;5030755;28;20217;-87
2023/12/05 11:03:41;;;;;;;25.17;9.33;;;;;;;10.48;61.24;99338.84;5020693;28;20209;-87
2023/12/05 11:06:08;;;;;;;26.27;10.00;;;;;;;10.44;60.94;99334.72;5030442;28;20258;-86
2023/12/05 11:08:35;;;;;;;26.03;8.47;;;;;;;10.43;60.70;99327.75;5030028;28;20174;-86
2023/12/05 11:11:04;;;;;;;26.87;8.73;;;;;;;10.35;61.92;99327.28;5030389;28;20213;-86
2023/12/05 11:13:33;;;;;;;24.33;8.43;;;;;;;10.35;61.81;99314.19;5031437;28;20181;-87
2023/12/05 11:16:09;;;;;;;19.93;8.63;;;;;;;10.45;61.88;99319.84;5029885;28;20246;-86
2023/12/05 11:18:39;;;;;;;26.70;7.20;;;;;;;10.43;61.76;99303.31;5031802;28;20165;-87
2023/12/05 11:21:45;;;;;;;17.70;8.27;;;;;;;10.53;61.67;99301.09;5030180;28;20182;-86
2023/12/05 11:24:21;;;;;;;23.03;9.10;;;;;;;10.59;61.78;99293.78;5015204;28;20181;-87
2023/12/05 11:27:02;;;;;;;26.60;8.80;;;;;;;10.60;61.94;99276.28;5011515;28;20265;-87
2023/12/05 11:30:04;;;;;;;16.67;7.87;;;;;;;10.65;62.05;99274.28;5011523;28;20625;-87
2023/12/05 11:32:44;;;;;;;34.90;9.23;;;;;;;10.61;62.23;99284.09;5010206;28;20178;-87
2023/12/05 11:35:34;;;;;;;35.63;10.60;;;;;;;10.56;62.93;99288.69;5011149;28;20171;-87